Serednikovo, Russia
Current Conditions -  °F | °C
As of 4:00 PM on Saturday 20 Dec 2014 (Local Time) from UUWW Reporting Station
Broken Clouds Broken Clouds  
Wind Chill: 30°   Ceiling: 3800
Heat Index: 37°   Visibility: 6mi
Dew Point: 34°   Wind: 11mph
Humidity: 87%   Direction: 260°W
Pressure: 29.41"   Gusts: NA
Location:  55.83°N, 35.82°E
Report Text: UUWW 201300Z 26005MPS 9999 BKN038 BKN200 03/01 Q0996 24290050NOSIG
Loading
Personal Weather Stations






























Interactive Weather Map New forecast layout! Learn more

10-Day Weather Forecast

Advertisements
Track Severe Weather on mobile